ROMMA est une association bénévole à but non lucratif. Votre soutien est indispensable : ADHERER à ROMMA ou FAIRE un DON

Briord - (01, Ain)

Bugey (281 m)   Longitude: 05° 29' 13" E   Latitude: 45° 46' 37" N Station partenaire n°15
 

Détail journalier du     <<     >>

Température Precipitation Humidité Pression Vent Dir Rafale Dir. rafale Ensol.
Heure (°C) (mm) (%) (hPa) (km/h) (km/h) (min)
01:00 23.307710161ESE13ESE0
02:00 22.707910152SSE18NNE0
03:00 21.0085101506NNO0
04:00 20.1087101503NE0
05:00 19.4088101505NNE0
06:00 18.91.291101500---0
07:00 18.9093101600---0
08:00 19.4093101605ONO0
09:00 19.8089101606O0
10:00 21.408410171O5ONO10
11:00 22.708110172ONO13ONO40
12:00 23.107610174NO13NO0
13:00 25.307110163ONO15OSO35
14:00 27.107110164O19ONO60
15:00 28.106410154NO19NO60
16:00 29.206210155ONO23NNO60
17:00 30.206210149NO24NO60
18:00 30.306110147NO21O60
19:00 28.906010136NO19ONO40
20:00 27.706110143NO18O35
21:00 25.307310151---10SSE0
22:00 22.8079101500---0
23:00 21.1083101600---0
minuit 20.2084101602ESE0

Graphique du 03-07-2019

 

Serveur OMMA